createdAt,value
2023-01-31T00:00:18.367Z,91.17
2023-01-31T00:01:22.779Z,91.14
2023-01-31T00:02:26.740Z,91.03
2023-01-31T00:04:03.593Z,90.92
2023-01-31T00:05:07.411Z,90.88
2023-01-31T00:06:11.567Z,90.88
2023-01-31T00:07:48.172Z,90.80
2023-01-31T00:08:52.005Z,90.77
2023-01-31T00:09:55.794Z,90.82
2023-01-31T00:11:31.658Z,90.84
2023-01-31T00:12:36.423Z,90.92
2023-01-31T00:13:40.739Z,90.96
2023-01-31T00:15:16.862Z,90.98
2023-01-31T00:16:21.663Z,90.96
2023-01-31T00:17:26.156Z,91.09
2023-01-31T00:19:02.897Z,90.96
2023-01-31T00:20:06.660Z,91.06
2023-01-31T00:21:10.162Z,91.05
2023-01-31T00:22:46.250Z,91.34
2023-01-31T00:23:50.055Z,91.36
2023-01-31T00:24:53.682Z,91.33
2023-01-31T00:26:30.309Z,91.32
2023-01-31T00:27:34.894Z,91.28
2023-01-31T00:28:38.571Z,91.30
2023-01-31T00:30:14.440Z,91.22
2023-01-31T00:31:19.147Z,91.20
2023-01-31T00:32:24.528Z,91.36
2023-01-31T00:34:01.568Z,91.41
2023-01-31T00:35:05.279Z,91.36
2023-01-31T00:36:09.322Z,91.28
2023-01-31T00:37:45.357Z,91.34
2023-01-31T00:38:49.205Z,91.45
2023-01-31T00:39:52.838Z,91.51
2023-01-31T00:41:29.502Z,91.72
2023-01-31T00:42:34.740Z,91.63
2023-01-31T00:43:38.694Z,91.61
2023-01-31T00:45:15.447Z,91.72
2023-01-31T00:46:19.969Z,91.82
2023-01-31T00:47:24.830Z,91.87
2023-01-31T00:49:01.585Z,92.03
2023-01-31T00:50:05.536Z,92.03
2023-01-31T00:51:09.511Z,91.92
2023-01-31T00:52:46.111Z,91.77
2023-01-31T00:53:49.937Z,91.70
2023-01-31T00:54:53.875Z,91.65
2023-01-31T00:56:30.204Z,91.66
2023-01-31T00:57:34.658Z,91.47
2023-01-31T00:58:39.551Z,91.50
2023-01-31T01:00:18.046Z,91.41
2023-01-31T01:01:22.458Z,91.40
2023-01-31T01:02:27.501Z,91.34
2023-01-31T01:04:03.888Z,91.28
2023-01-31T01:05:07.628Z,91.31
2023-01-31T01:06:11.791Z,91.25
2023-01-31T01:07:49.082Z,91.33
2023-01-31T01:08:52.918Z,91.44
2023-01-31T01:09:56.736Z,91.51
2023-01-31T01:11:33.323Z,91.98
2023-01-31T01:12:37.990Z,92.10
2023-01-31T01:13:42.839Z,92.15
2023-01-31T01:15:19.282Z,92.15
2023-01-31T01:16:24.215Z,92.13
2023-01-31T01:17:29.438Z,92.19
2023-01-31T01:19:05.413Z,92.34
2023-01-31T01:20:09.233Z,92.35
2023-01-31T01:21:13.128Z,92.35
2023-01-31T01:22:50.003Z,92.18
2023-01-31T01:23:53.748Z,92.23
2023-01-31T01:24:57.469Z,92.19
2023-01-31T01:26:34.982Z,92.43
2023-01-31T01:27:40.534Z,92.48
2023-01-31T01:28:44.301Z,92.56
2023-01-31T01:30:20.722Z,92.36
2023-01-31T01:31:24.702Z,92.39
2023-01-31T01:32:29.912Z,92.27
2023-01-31T01:34:06.158Z,92.30
2023-01-31T01:35:10.207Z,92.35
2023-01-31T01:36:14.854Z,92.31
2023-01-31T01:37:51.295Z,92.31
2023-01-31T01:38:55.026Z,92.36
2023-01-31T01:39:59.417Z,92.35
2023-01-31T01:41:36.256Z,92.23
2023-01-31T01:42:40.111Z,92.12
2023-01-31T01:43:43.745Z,92.05
2023-01-31T01:45:21.301Z,92.21
2023-01-31T01:46:25.756Z,92.18
2023-01-31T01:47:30.177Z,92.21
2023-01-31T01:49:06.873Z,92.26
2023-01-31T01:50:10.736Z,92.26
2023-01-31T01:51:14.575Z,92.33
2023-01-31T01:52:50.946Z,92.36
2023-01-31T01:53:54.886Z,92.28
2023-01-31T01:54:58.576Z,92.17
2023-01-31T01:56:35.113Z,92.23
2023-01-31T01:57:38.909Z,92.20
2023-01-31T01:58:42.732Z,92.22
2023-01-31T02:00:17.913Z,92.42
2023-01-31T02:01:23.070Z,92.43
2023-01-31T02:02:27.389Z,92.40
2023-01-31T02:04:03.774Z,92.44
2023-01-31T02:05:07.864Z,92.39
2023-01-31T02:06:12.411Z,92.29
2023-01-31T02:07:48.605Z,92.13
2023-01-31T02:08:52.476Z,92.10
2023-01-31T02:09:56.154Z,92.06
2023-01-31T02:11:32.076Z,92.03
2023-01-31T02:12:36.065Z,91.96
2023-01-31T02:13:39.740Z,92.04
2023-01-31T02:15:15.947Z,92.01
2023-01-31T02:16:20.527Z,92.03
2023-01-31T02:17:25.675Z,92.09
2023-01-31T02:19:01.766Z,92.01
2023-01-31T02:20:06.123Z,91.99
2023-01-31T02:21:10.416Z,91.90
2023-01-31T02:22:46.351Z,91.84
2023-01-31T02:23:50.179Z,91.70
2023-01-31T02:24:53.834Z,91.78
2023-01-31T02:26:30.330Z,91.81
2023-01-31T02:27:34.424Z,91.78
2023-01-31T02:28:38.117Z,91.88
2023-01-31T02:30:14.230Z,91.92
2023-01-31T02:31:18.954Z,92.03
2023-01-31T02:32:23.845Z,92.01
2023-01-31T02:34:00.009Z,91.94
2023-01-31T02:35:04.513Z,91.96
2023-01-31T02:36:09.956Z,91.83
2023-01-31T02:37:45.991Z,91.76
2023-01-31T02:38:49.829Z,91.75
2023-01-31T02:39:53.637Z,91.65
2023-01-31T02:41:29.654Z,91.58
2023-01-31T02:45:21.064Z,91.54
2023-01-31T02:46:57.881Z,91.52
2023-01-31T02:48:01.651Z,91.52
2023-01-31T02:49:06.122Z,91.50
2023-01-31T02:50:42.577Z,91.49
2023-01-31T02:51:46.496Z,91.52
2023-01-31T02:52:50.192Z,91.54
2023-01-31T02:54:26.178Z,91.51
2023-01-31T02:55:30.140Z,91.62
2023-01-31T02:56:33.736Z,91.57
2023-01-31T02:58:09.972Z,91.57
2023-01-31T02:59:13.743Z,91.54
2023-01-31T03:00:18.319Z,91.49
2023-01-31T03:01:21.926Z,91.47
2023-01-31T03:02:26.283Z,91.46
2023-01-31T03:04:02.300Z,91.54
2023-01-31T03:05:05.867Z,91.41
2023-01-31T03:06:10.716Z,91.44
2023-01-31T03:07:47.282Z,91.58
2023-01-31T03:08:51.013Z,91.81
2023-01-31T03:09:54.774Z,91.81
2023-01-31T03:11:31.735Z,91.83
2023-01-31T03:12:35.185Z,91.95
2023-01-31T03:13:38.855Z,91.99
2023-01-31T03:15:14.851Z,92.02
2023-01-31T03:16:19.408Z,92.06
2023-01-31T03:17:23.367Z,92.19
2023-01-31T03:18:59.522Z,92.29
2023-01-31T03:20:03.095Z,92.28
2023-01-31T03:21:07.326Z,92.27
2023-01-31T03:22:43.293Z,92.34
2023-01-31T03:23:46.962Z,92.36
2023-01-31T03:24:50.671Z,92.30
2023-01-31T03:26:26.839Z,92.22
2023-01-31T03:27:31.298Z,92.12
2023-01-31T03:28:34.976Z,92.01
2023-01-31T03:30:10.913Z,92.06
2023-01-31T03:31:15.002Z,92.07
2023-01-31T03:32:19.682Z,92.10
2023-01-31T03:33:55.525Z,92.03
2023-01-31T03:34:59.131Z,92.08
2023-01-31T03:36:03.793Z,92.02
2023-01-31T03:37:39.743Z,92.03
2023-01-31T03:38:43.453Z,91.96
2023-01-31T03:39:47.064Z,91.93
2023-01-31T03:41:23.268Z,91.97
2023-01-31T03:42:27.137Z,91.99
2023-01-31T03:43:30.930Z,92.11
2023-01-31T03:45:07.033Z,92.16
2023-01-31T03:46:11.633Z,92.20
2023-01-31T03:47:16.794Z,92.26
2023-01-31T03:48:52.798Z,92.18
2023-01-31T03:49:56.331Z,92.17
2023-01-31T03:51:00.752Z,92.18
2023-01-31T03:52:36.496Z,92.20
2023-01-31T03:53:40.179Z,92.12
2023-01-31T03:54:44.050Z,92.10
2023-01-31T03:56:20.387Z,92.27
2023-01-31T03:57:24.801Z,92.30
2023-01-31T03:58:28.349Z,92.50
2023-01-31T04:00:18.661Z,92.53
2023-01-31T04:01:22.435Z,92.50
2023-01-31T04:02:26.258Z,92.50
2023-01-31T04:04:02.937Z,92.59
2023-01-31T04:05:07.091Z,92.57
2023-01-31T04:06:11.519Z,92.47
2023-01-31T04:07:47.277Z,92.46
2023-01-31T04:08:50.760Z,92.58
2023-01-31T04:09:54.792Z,92.75
2023-01-31T04:11:30.475Z,92.80
2023-01-31T04:12:33.915Z,92.76
2023-01-31T04:13:38.078Z,92.78
2023-01-31T04:15:13.899Z,92.74
2023-01-31T04:16:18.374Z,92.70
2023-01-31T04:17:22.570Z,92.61
2023-01-31T04:18:58.641Z,92.65
2023-01-31T04:20:03.052Z,92.61
2023-01-31T04:21:06.719Z,92.71
2023-01-31T04:22:42.984Z,92.75
2023-01-31T04:23:46.464Z,92.77
2023-01-31T04:24:49.933Z,92.78
2023-01-31T04:26:26.522Z,92.99
2023-01-31T04:27:30.293Z,92.93
2023-01-31T04:28:33.914Z,92.87
2023-01-31T04:30:09.853Z,92.94
2023-01-31T04:31:14.279Z,92.95
2023-01-31T04:32:19.279Z,92.91
2023-01-31T04:33:55.986Z,92.88
2023-01-31T04:35:01.395Z,92.81
2023-01-31T04:36:06.637Z,92.85
2023-01-31T04:37:42.522Z,92.94
2023-01-31T04:38:46.154Z,92.99
2023-01-31T04:39:49.680Z,92.95
2023-01-31T04:41:25.540Z,92.97
2023-01-31T04:42:30.000Z,92.98
2023-01-31T04:43:33.594Z,93.08
2023-01-31T04:45:09.622Z,93.06
2023-01-31T04:46:13.660Z,93.00
2023-01-31T04:47:17.903Z,93.04
2023-01-31T04:48:54.244Z,93.01
2023-01-31T04:49:57.867Z,92.95
2023-01-31T04:51:02.129Z,92.97
2023-01-31T04:52:38.813Z,92.90
2023-01-31T04:53:42.503Z,92.91
2023-01-31T04:54:46.330Z,92.97
2023-01-31T04:56:22.791Z,92.93
2023-01-31T04:57:26.405Z,92.98
2023-01-31T04:58:29.844Z,92.94
2023-01-31T05:00:18.052Z,92.94
2023-01-31T05:01:21.901Z,92.92
2023-01-31T05:02:25.524Z,92.90
2023-01-31T05:04:02.409Z,92.92
2023-01-31T05:05:46.518Z,92.87
2023-01-31T05:06:49.966Z,92.94
2023-01-31T05:07:53.659Z,92.86
2023-01-31T05:09:30.259Z,92.98
2023-01-31T05:10:34.008Z,92.98
2023-01-31T05:11:37.618Z,92.89
2023-01-31T05:13:13.532Z,92.88
2023-01-31T05:14:17.194Z,92.87
2023-01-31T05:15:21.083Z,92.93
2023-01-31T05:16:56.951Z,92.88
2023-01-31T05:18:00.604Z,92.86
2023-01-31T05:19:04.559Z,92.88
2023-01-31T05:20:40.507Z,92.98
2023-01-31T05:21:44.704Z,92.88
2023-01-31T05:22:48.388Z,92.93
2023-01-31T05:24:24.681Z,92.87
2023-01-31T05:25:29.002Z,92.78
2023-01-31T05:26:32.839Z,92.72
2023-01-31T05:28:10.512Z,92.72
2023-01-31T05:29:14.831Z,92.78
2023-01-31T05:30:19.573Z,92.78
2023-01-31T05:31:57.358Z,92.79
2023-01-31T05:33:01.902Z,92.87
2023-01-31T05:34:05.577Z,92.95
2023-01-31T05:35:41.846Z,92.86
2023-01-31T05:36:45.537Z,92.92
2023-01-31T05:37:49.265Z,92.95
2023-01-31T05:39:25.850Z,92.90
2023-01-31T05:40:29.768Z,92.86
2023-01-31T05:41:33.984Z,92.88
2023-01-31T05:43:10.020Z,92.91
2023-01-31T05:44:16.822Z,92.94
2023-01-31T05:45:20.843Z,92.93
2023-01-31T05:46:57.505Z,93.11
2023-01-31T05:48:02.429Z,93.13
2023-01-31T05:49:06.850Z,93.08
2023-01-31T05:50:42.957Z,93.09
2023-01-31T05:51:47.434Z,93.09
2023-01-31T05:52:51.324Z,93.13
2023-01-31T05:54:27.507Z,93.10
2023-01-31T05:55:32.300Z,93.13
2023-01-31T05:56:36.332Z,93.16
2023-01-31T05:58:12.968Z,93.15
2023-01-31T05:59:16.597Z,93.14
2023-01-31T06:00:18.775Z,93.18
2023-01-31T06:01:23.044Z,93.15
2023-01-31T06:02:27.173Z,93.16
2023-01-31T06:04:04.294Z,93.12
2023-01-31T06:05:08.065Z,93.13
2023-01-31T06:06:12.718Z,93.12
2023-01-31T06:07:48.649Z,93.05
2023-01-31T06:08:52.693Z,93.01
2023-01-31T06:09:57.008Z,93.02
2023-01-31T06:11:34.213Z,92.96
2023-01-31T06:12:37.899Z,92.90
2023-01-31T06:13:41.637Z,92.90
2023-01-31T06:15:18.827Z,92.96
2023-01-31T06:16:23.192Z,93.00
2023-01-31T06:17:29.406Z,92.98
2023-01-31T06:19:07.057Z,93.02
2023-01-31T06:20:11.418Z,93.00
2023-01-31T06:21:15.117Z,92.98
2023-01-31T06:22:51.154Z,93.05
2023-01-31T06:23:55.459Z,93.13
2023-01-31T06:24:59.538Z,93.05
2023-01-31T06:26:36.564Z,93.01
2023-01-31T06:27:40.506Z,93.04
2023-01-31T06:28:46.236Z,93.01
2023-01-31T06:30:22.894Z,92.97
2023-01-31T06:31:27.570Z,93.02
2023-01-31T06:32:32.171Z,93.00
2023-01-31T06:34:27.864Z,93.00
2023-01-31T06:35:31.763Z,92.91
2023-01-31T06:36:35.544Z,92.87
2023-01-31T06:38:11.428Z,92.77
2023-01-31T06:39:15.269Z,92.75
2023-01-31T06:40:19.348Z,92.77
2023-01-31T06:41:55.614Z,92.70
2023-01-31T06:42:59.376Z,92.75
2023-01-31T06:44:03.428Z,92.75
2023-01-31T06:45:40.694Z,92.75
2023-01-31T06:46:44.674Z,92.74
2023-01-31T06:47:48.613Z,92.71
2023-01-31T06:49:25.101Z,92.70
2023-01-31T06:50:29.000Z,92.75
2023-01-31T06:51:32.865Z,92.72
2023-01-31T06:53:09.061Z,92.80
2023-01-31T06:54:13.473Z,92.76
2023-01-31T06:55:17.698Z,92.73
2023-01-31T06:56:53.993Z,92.70
2023-01-31T06:57:57.701Z,92.83
2023-01-31T06:59:01.807Z,92.79
2023-01-31T07:00:18.396Z,92.79
2023-01-31T07:01:23.242Z,92.83
2023-01-31T07:02:27.483Z,92.82
2023-01-31T07:04:03.520Z,92.78
2023-01-31T07:05:07.716Z,92.76
2023-01-31T07:06:12.132Z,92.77
2023-01-31T07:07:48.599Z,92.76
2023-01-31T07:08:52.565Z,92.72
2023-01-31T07:09:56.387Z,92.71
2023-01-31T07:11:32.646Z,92.67
2023-01-31T07:12:37.223Z,92.64
2023-01-31T07:13:40.983Z,92.59
2023-01-31T07:15:17.084Z,92.61
2023-01-31T07:16:21.173Z,92.61
2023-01-31T07:17:24.954Z,92.60
2023-01-31T07:19:02.197Z,92.55
2023-01-31T07:20:05.944Z,92.55
2023-01-31T07:21:10.068Z,92.57
2023-01-31T07:22:46.159Z,92.61
2023-01-31T07:23:50.989Z,92.59
2023-01-31T07:24:54.815Z,92.55
2023-01-31T07:26:32.322Z,92.54
2023-01-31T07:27:38.143Z,92.52
2023-01-31T07:28:41.826Z,92.41
2023-01-31T07:30:19.320Z,92.27
2023-01-31T07:31:23.500Z,92.20
2023-01-31T07:32:28.377Z,92.20
2023-01-31T07:34:04.450Z,92.07
2023-01-31T07:35:08.243Z,92.01
2023-01-31T07:36:13.021Z,91.90
2023-01-31T07:37:49.731Z,91.83
2023-01-31T07:38:53.465Z,91.84
2023-01-31T07:39:57.209Z,91.85
2023-01-31T07:41:33.409Z,91.87
2023-01-31T07:42:37.092Z,91.78
2023-01-31T07:43:41.274Z,91.72
2023-01-31T07:45:39.629Z,91.65
2023-01-31T07:46:43.985Z,91.75
2023-01-31T07:47:48.506Z,91.74
2023-01-31T07:49:24.654Z,91.76
2023-01-31T07:50:29.005Z,91.69
2023-01-31T07:51:33.294Z,91.69
2023-01-31T07:53:09.479Z,91.70
2023-01-31T07:54:13.920Z,91.73
2023-01-31T07:55:17.890Z,91.66
2023-01-31T07:56:54.480Z,91.56
2023-01-31T07:57:58.314Z,91.56
2023-01-31T07:59:02.249Z,91.57
2023-01-31T08:00:18.166Z,91.55
2023-01-31T08:01:22.256Z,91.59
2023-01-31T08:02:29.849Z,91.59
2023-01-31T08:04:26.128Z,91.62
2023-01-31T08:05:30.824Z,91.69
2023-01-31T08:06:34.556Z,91.62
2023-01-31T08:08:13.856Z,91.56
2023-01-31T08:09:17.559Z,91.56
2023-01-31T08:10:21.807Z,91.56
2023-01-31T08:11:58.026Z,91.42
2023-01-31T08:13:01.755Z,91.41
2023-01-31T08:14:05.589Z,91.44
2023-01-31T08:15:41.659Z,91.50
2023-01-31T08:16:45.555Z,91.39
2023-01-31T08:17:49.584Z,91.41
2023-01-31T08:19:26.350Z,91.34
2023-01-31T08:20:30.614Z,91.40
2023-01-31T08:21:34.396Z,91.30
2023-01-31T08:23:11.295Z,91.41
2023-01-31T08:24:15.921Z,91.36
2023-01-31T08:25:20.803Z,91.35
2023-01-31T08:26:57.788Z,91.37
2023-01-31T08:28:01.518Z,91.31
2023-01-31T08:29:05.421Z,91.21
2023-01-31T08:30:41.661Z,91.28
2023-01-31T08:32:02.754Z,91.28
2023-01-31T08:33:06.961Z,91.34
2023-01-31T08:34:43.730Z,91.22
2023-01-31T08:35:47.371Z,91.40
2023-01-31T08:36:51.290Z,91.36
2023-01-31T08:38:30.329Z,91.34
2023-01-31T08:39:35.106Z,91.32
2023-01-31T08:40:38.895Z,91.35
2023-01-31T08:42:14.912Z,91.40
2023-01-31T08:43:19.404Z,91.44
2023-01-31T08:44:45.732Z,91.49
2023-01-31T08:46:21.996Z,91.50
2023-01-31T08:47:26.556Z,91.58
2023-01-31T08:48:30.690Z,91.48
2023-01-31T08:50:09.125Z,91.57
2023-01-31T08:51:27.213Z,91.58
2023-01-31T08:52:31.346Z,91.57
2023-01-31T08:54:07.387Z,91.54
2023-01-31T08:55:11.187Z,91.60
2023-01-31T08:56:15.819Z,91.51
2023-01-31T08:58:05.368Z,91.46
2023-01-31T08:59:09.667Z,91.44
2023-01-31T09:00:18.146Z,91.50
2023-01-31T09:01:22.827Z,91.42
2023-01-31T09:02:27.716Z,91.51
2023-01-31T09:04:04.293Z,91.56
2023-01-31T09:05:08.114Z,91.42
2023-01-31T09:06:12.464Z,91.48
2023-01-31T09:07:49.183Z,91.42
2023-01-31T09:08:52.870Z,91.38
2023-01-31T09:09:56.795Z,91.36
2023-01-31T09:11:33.603Z,91.31
2023-01-31T09:12:37.521Z,91.18
2023-01-31T09:13:41.354Z,91.23
2023-01-31T09:15:17.623Z,91.26
2023-01-31T09:16:22.346Z,91.27
2023-01-31T09:17:30.078Z,91.31
2023-01-31T09:19:06.148Z,91.20
2023-01-31T09:20:10.912Z,91.20
2023-01-31T09:21:15.278Z,91.17
2023-01-31T09:22:51.660Z,91.08
2023-01-31T09:23:55.386Z,91.04
2023-01-31T09:24:59.088Z,91.10
2023-01-31T09:26:54.828Z,91.16
2023-01-31T09:27:58.652Z,91.16
2023-01-31T09:29:02.524Z,91.18
2023-01-31T09:30:39.282Z,91.30
2023-01-31T09:31:44.392Z,91.25
2023-01-31T09:32:48.371Z,91.24
2023-01-31T09:34:24.572Z,91.20
2023-01-31T09:35:29.484Z,91.25
2023-01-31T09:36:33.197Z,91.27
2023-01-31T09:38:09.532Z,91.17
2023-01-31T09:39:13.853Z,91.26
2023-01-31T09:40:17.700Z,91.23
2023-01-31T09:41:54.507Z,91.15
2023-01-31T09:42:59.920Z,91.16
2023-01-31T09:44:03.726Z,91.11
2023-01-31T09:45:39.902Z,91.08
2023-01-31T09:46:43.857Z,90.96
2023-01-31T09:47:47.812Z,90.96
2023-01-31T09:49:23.846Z,90.88
2023-01-31T09:50:28.278Z,90.85
2023-01-31T09:51:32.170Z,90.75
2023-01-31T09:53:08.407Z,90.65
2023-01-31T09:54:12.197Z,90.52
2023-01-31T09:55:16.299Z,90.51
2023-01-31T09:56:53.028Z,90.52
2023-01-31T09:57:56.863Z,90.66
2023-01-31T09:59:00.776Z,90.51
2023-01-31T10:00:18.766Z,90.58
2023-01-31T10:01:23.880Z,90.57
2023-01-31T10:02:28.503Z,90.52
2023-01-31T10:04:04.881Z,90.48
2023-01-31T10:05:08.981Z,90.52
2023-01-31T10:06:13.745Z,90.51
2023-01-31T10:07:49.816Z,90.28
2023-01-31T10:08:53.557Z,90.35
2023-01-31T10:09:57.414Z,90.21
2023-01-31T10:11:35.001Z,90.20
2023-01-31T10:12:39.654Z,90.16
2023-01-31T10:13:43.520Z,90.00
2023-01-31T10:15:20.510Z,89.97
2023-01-31T10:16:25.035Z,89.96
2023-01-31T10:17:29.271Z,89.81
2023-01-31T10:19:05.921Z,89.83
2023-01-31T10:20:10.228Z,89.54
2023-01-31T10:21:14.802Z,89.62
2023-01-31T10:22:51.528Z,89.66
2023-01-31T10:23:55.389Z,89.43
2023-01-31T10:24:59.105Z,89.58
2023-01-31T10:26:36.465Z,89.52
2023-01-31T10:27:40.741Z,89.61
2023-01-31T10:28:44.524Z,89.55
2023-01-31T10:30:20.771Z,89.79
2023-01-31T10:31:25.129Z,89.41
2023-01-31T10:32:31.843Z,89.42
2023-01-31T10:34:08.590Z,89.69
2023-01-31T10:35:12.651Z,89.89
2023-01-31T10:36:16.733Z,89.66
2023-01-31T10:37:52.848Z,89.58
2023-01-31T10:38:56.711Z,89.44
2023-01-31T10:40:00.536Z,89.38
2023-01-31T10:41:37.740Z,89.49
2023-01-31T10:42:41.467Z,89.37
2023-01-31T10:43:46.736Z,89.42
2023-01-31T10:45:23.784Z,89.20
2023-01-31T10:46:30.737Z,89.22
2023-01-31T10:47:34.555Z,88.96
2023-01-31T10:49:11.180Z,89.14
2023-01-31T10:50:14.905Z,89.11
2023-01-31T10:51:19.261Z,89.22
2023-01-31T10:52:56.707Z,89.36
2023-01-31T10:54:00.457Z,89.54
2023-01-31T10:55:04.346Z,89.47
2023-01-31T10:56:41.635Z,89.52
2023-01-31T10:57:45.685Z,89.52
2023-01-31T10:58:49.512Z,89.57
2023-01-31T11:00:18.990Z,89.52
2023-01-31T11:01:23.220Z,89.57
2023-01-31T11:02:27.230Z,89.50
2023-01-31T11:04:03.848Z,89.58
2023-01-31T11:05:07.666Z,89.72
2023-01-31T11:06:12.347Z,89.77
2023-01-31T11:07:48.600Z,89.85
2023-01-31T11:08:52.413Z,89.84
2023-01-31T11:09:56.203Z,90.04
2023-01-31T11:11:32.777Z,90.22
2023-01-31T11:12:36.448Z,90.22
2023-01-31T11:13:40.504Z,90.30
2023-01-31T11:15:16.736Z,90.65
2023-01-31T11:16:20.845Z,90.82
2023-01-31T11:17:25.279Z,91.02
2023-01-31T11:19:01.250Z,91.23
2023-01-31T11:20:05.112Z,91.35
2023-01-31T11:21:09.584Z,91.47
2023-01-31T11:22:45.741Z,91.59
2023-01-31T11:23:49.480Z,92.06
2023-01-31T11:24:53.304Z,92.10
2023-01-31T11:26:29.592Z,92.24
2023-01-31T11:27:33.666Z,92.59
2023-01-31T11:28:37.463Z,92.72
2023-01-31T11:30:13.479Z,93.13
2023-01-31T11:31:17.871Z,93.38
2023-01-31T11:32:21.924Z,93.77
2023-01-31T11:33:57.934Z,94.15
2023-01-31T11:35:01.731Z,94.31
2023-01-31T11:36:05.419Z,94.50
2023-01-31T11:37:41.713Z,94.72
2023-01-31T11:38:51.993Z,94.95
2023-01-31T11:39:55.849Z,95.38
2023-01-31T11:41:32.592Z,95.54
2023-01-31T11:42:36.381Z,95.58
2023-01-31T11:43:41.617Z,95.65
2023-01-31T11:45:18.748Z,95.78
2023-01-31T11:46:22.694Z,95.90
2023-01-31T11:47:26.703Z,95.89
2023-01-31T11:49:02.963Z,96.09
2023-01-31T11:50:06.838Z,96.07
2023-01-31T11:51:14.598Z,96.16
2023-01-31T11:52:50.775Z,96.23
2023-01-31T11:53:54.469Z,96.34
2023-01-31T11:54:58.303Z,96.40
2023-01-31T11:56:34.470Z,96.53
2023-01-31T11:57:40.105Z,96.52
2023-01-31T11:58:44.085Z,96.59
2023-01-31T12:00:18.669Z,96.63
2023-01-31T12:01:22.942Z,96.73
2023-01-31T12:02:27.096Z,96.75
2023-01-31T12:04:09.586Z,96.87
2023-01-31T12:05:13.632Z,96.87
2023-01-31T12:06:17.099Z,96.89
2023-01-31T12:07:54.718Z,96.99
2023-01-31T12:08:57.993Z,97.03
2023-01-31T12:10:01.344Z,97.00
2023-01-31T12:11:37.440Z,97.00
2023-01-31T12:12:40.888Z,97.09
2023-01-31T12:14:03.868Z,97.09
2023-01-31T12:15:39.435Z,97.11
2023-01-31T12:16:43.463Z,97.14
2023-01-31T12:17:47.114Z,97.13
2023-01-31T12:19:22.573Z,97.11
2023-01-31T12:20:34.647Z,97.08
2023-01-31T12:21:37.856Z,97.14
2023-01-31T12:23:13.314Z,97.11
2023-01-31T12:24:16.386Z,97.13
2023-01-31T12:25:20.371Z,97.14
2023-01-31T12:26:56.456Z,97.13
2023-01-31T12:27:59.820Z,97.10
2023-01-31T12:29:03.123Z,97.06
2023-01-31T12:30:41.396Z,97.05
2023-01-31T12:31:45.817Z,97.01
2023-01-31T12:32:49.221Z,97.13
2023-01-31T12:34:24.765Z,97.09
2023-01-31T12:35:50.659Z,96.99
2023-01-31T12:36:53.960Z,97.01
2023-01-31T12:38:29.212Z,96.91
2023-01-31T12:39:32.579Z,96.87
2023-01-31T12:40:36.868Z,96.72
2023-01-31T12:42:12.321Z,96.61
2023-01-31T12:43:15.888Z,96.59
2023-01-31T12:44:19.439Z,96.61
2023-01-31T12:45:55.229Z,96.42
2023-01-31T12:47:16.842Z,96.41
2023-01-31T12:48:19.946Z,96.33
2023-01-31T12:49:55.730Z,96.27
2023-01-31T12:50:59.537Z,96.13
2023-01-31T12:52:02.919Z,96.06
2023-01-31T12:53:38.337Z,96.04
2023-01-31T12:54:41.491Z,95.94
2023-01-31T12:55:44.690Z,95.89
2023-01-31T12:57:20.134Z,95.80
2023-01-31T12:58:23.529Z,95.68
2023-01-31T12:59:27.136Z,95.68
2023-01-31T13:00:17.697Z,95.65
2023-01-31T13:01:21.289Z,95.65
2023-01-31T13:02:25.188Z,95.53
2023-01-31T13:04:01.131Z,95.15
2023-01-31T13:05:04.550Z,95.09
2023-01-31T13:06:09.324Z,94.89
2023-01-31T13:07:44.746Z,94.94
2023-01-31T13:09:06.835Z,94.90
2023-01-31T13:10:10.970Z,94.98
2023-01-31T13:11:47.123Z,94.74
2023-01-31T13:12:50.335Z,94.68
2023-01-31T13:13:53.674Z,94.71
2023-01-31T13:15:29.278Z,94.50
2023-01-31T13:16:33.005Z,94.51
2023-01-31T13:17:36.441Z,94.45
2023-01-31T13:19:11.681Z,94.26
2023-01-31T13:20:14.951Z,94.21
2023-01-31T13:21:18.278Z,94.01
2023-01-31T13:22:55.808Z,94.10
2023-01-31T13:23:59.454Z,94.02
2023-01-31T13:25:02.837Z,94.06
2023-01-31T13:26:39.211Z,94.03
2023-01-31T13:27:44.724Z,94.02
2023-01-31T13:28:47.852Z,93.71
2023-01-31T13:30:23.450Z,93.66
2023-01-31T13:31:27.551Z,93.65
2023-01-31T13:32:31.366Z,93.56
2023-01-31T13:34:08.282Z,93.58
2023-01-31T13:35:11.521Z,93.30
2023-01-31T13:36:15.579Z,93.12
2023-01-31T13:37:51.092Z,92.99
2023-01-31T13:38:54.594Z,92.95
2023-01-31T13:39:57.848Z,92.89
2023-01-31T13:41:33.433Z,92.88
2023-01-31T13:42:36.903Z,93.05
2023-01-31T13:43:40.175Z,93.21
2023-01-31T13:45:15.475Z,93.17
2023-01-31T13:46:19.346Z,93.11
2023-01-31T13:47:22.836Z,92.76
2023-01-31T13:48:58.294Z,92.48
2023-01-31T13:50:01.700Z,92.49
2023-01-31T13:51:05.092Z,92.14
2023-01-31T13:52:40.541Z,91.76
2023-01-31T13:53:44.902Z,91.77
2023-01-31T13:54:48.449Z,91.89
2023-01-31T13:56:24.223Z,91.86
2023-01-31T13:57:27.696Z,91.77
2023-01-31T13:58:32.361Z,91.91
2023-01-31T14:00:18.525Z,91.91
2023-01-31T14:01:22.280Z,91.93
2023-01-31T14:02:25.854Z,92.11
2023-01-31T14:04:01.844Z,91.95
2023-01-31T14:05:05.073Z,92.05
2023-01-31T14:06:08.813Z,92.14
2023-01-31T14:07:44.372Z,92.07
2023-01-31T14:08:47.755Z,91.98
2023-01-31T14:09:51.378Z,91.87
2023-01-31T14:11:26.633Z,91.45
2023-01-31T14:12:29.720Z,91.36
2023-01-31T14:13:32.993Z,91.37
2023-01-31T14:15:08.309Z,91.20
2023-01-31T14:16:11.916Z,90.86
2023-01-31T14:17:15.673Z,90.64
2023-01-31T14:18:51.031Z,90.39
2023-01-31T14:19:54.334Z,90.30
2023-01-31T14:20:58.157Z,90.16
2023-01-31T14:22:34.487Z,90.19
2023-01-31T14:23:37.941Z,90.11
2023-01-31T14:24:41.366Z,89.99
2023-01-31T14:26:17.023Z,89.96
2023-01-31T14:27:20.848Z,89.75
2023-01-31T14:28:25.618Z,89.80
2023-01-31T14:30:01.767Z,89.46
2023-01-31T14:31:05.841Z,89.47
2023-01-31T14:32:09.645Z,89.40
2023-01-31T14:33:45.006Z,89.00
2023-01-31T14:34:50.697Z,89.14
2023-01-31T14:35:53.886Z,89.18
2023-01-31T14:37:29.469Z,88.92
2023-01-31T14:38:32.901Z,88.80
2023-01-31T14:39:36.426Z,88.72
2023-01-31T14:41:11.586Z,88.57
2023-01-31T14:42:15.032Z,88.63
2023-01-31T14:43:18.368Z,88.54
2023-01-31T14:44:54.217Z,88.43
2023-01-31T14:45:57.649Z,87.93
2023-01-31T14:47:05.913Z,87.84
2023-01-31T14:48:45.042Z,87.29
2023-01-31T14:49:51.698Z,87.30
2023-01-31T14:50:55.036Z,87.17
2023-01-31T14:52:30.229Z,86.96
2023-01-31T14:53:36.877Z,86.28
2023-01-31T14:54:40.290Z,86.45
2023-01-31T14:56:16.140Z,86.18
2023-01-31T14:57:19.212Z,85.71
2023-01-31T14:58:22.620Z,85.12
2023-01-31T14:59:58.183Z,85.02
2023-01-31T15:00:17.841Z,85.16
2023-01-31T15:01:21.422Z,85.38
2023-01-31T15:02:25.206Z,85.07
2023-01-31T15:04:02.482Z,84.04
2023-01-31T15:05:06.040Z,84.09
2023-01-31T15:06:10.084Z,83.82
2023-01-31T15:07:45.577Z,83.48
2023-01-31T15:08:48.896Z,83.97
2023-01-31T15:09:52.059Z,84.04
2023-01-31T15:11:46.121Z,84.23
2023-01-31T15:12:49.263Z,84.14
2023-01-31T15:13:52.374Z,83.89
2023-01-31T15:15:45.997Z,83.54
2023-01-31T15:16:49.671Z,83.86
2023-01-31T15:18:12.639Z,83.49
2023-01-31T15:19:48.194Z,83.59
2023-01-31T15:20:51.581Z,83.46
2023-01-31T15:21:54.939Z,83.39
2023-01-31T15:23:30.039Z,83.48
2023-01-31T15:24:33.509Z,83.29
2023-01-31T15:25:36.847Z,83.47
2023-01-31T15:27:12.300Z,83.85
2023-01-31T15:28:15.772Z,83.70
2023-01-31T15:29:19.016Z,83.82
2023-01-31T15:30:54.921Z,83.53
2023-01-31T15:31:59.205Z,83.45
2023-01-31T15:33:02.809Z,83.62
2023-01-31T15:34:38.110Z,83.70
2023-01-31T15:35:41.461Z,83.59
2023-01-31T15:36:44.659Z,83.61
2023-01-31T15:38:20.118Z,83.47
2023-01-31T15:39:23.620Z,83.49
2023-01-31T15:40:26.871Z,83.42
2023-01-31T15:42:02.094Z,83.58
2023-01-31T15:43:05.261Z,83.57
2023-01-31T15:44:08.522Z,83.30
2023-01-31T15:45:44.188Z,83.24
2023-01-31T15:46:47.527Z,83.40
2023-01-31T15:47:50.761Z,83.02
2023-01-31T15:49:44.043Z,83.11
2023-01-31T15:50:47.300Z,82.76
2023-01-31T15:51:50.610Z,82.73
2023-01-31T15:53:25.739Z,83.21
2023-01-31T15:54:31.031Z,82.95
2023-01-31T15:55:34.330Z,82.74
2023-01-31T15:57:09.802Z,82.87
2023-01-31T15:58:13.152Z,82.87
2023-01-31T15:59:16.562Z,82.69
2023-01-31T16:00:17.746Z,82.78
2023-01-31T16:01:21.148Z,82.67
2023-01-31T16:02:24.860Z,82.58
2023-01-31T16:04:00.675Z,82.52
2023-01-31T16:05:04.071Z,82.38
2023-01-31T16:06:08.042Z,82.64
2023-01-31T16:07:43.538Z,82.51